Time;durP1;ratioP1;P1;durP2;ratioP2;P2;SDS_P1;SDS_P2;PMS_P1;PMS_P2;Temp;Humidity;BMP_temperature;BMP_pressure;BME280_temperature;BME280_humidity;BME280_pressure;Samples;Min_cycle;Max_cycle;Signal;HPM_P1;HPM_P2
2022/06/14 00:00:59;;;;;;;6.38;5.60;;;24.10;65.90;;;;;;5022988;28;20060;-59
2022/06/14 00:03:28;;;;;;;7.43;6.22;;;24.00;66.00;;;;;;5028514;28;20032;-59
2022/06/14 00:05:55;;;;;;;6.82;6.10;;;24.00;66.00;;;;;;5024970;28;20060;-59
2022/06/14 00:08:25;;;;;;;6.40;5.70;;;24.00;65.90;;;;;;5025933;28;20358;-59
2022/06/14 00:10:51;;;;;;;7.13;6.00;;;24.00;65.80;;;;;;5021256;28;20021;-59
2022/06/14 00:13:18;;;;;;;6.85;6.05;;;24.00;66.40;;;;;;5027327;28;20022;-59
2022/06/14 00:15:45;;;;;;;7.10;6.40;;;24.00;65.60;;;;;;5033003;28;20037;-59
2022/06/14 00:18:15;;;;;;;6.35;5.70;;;24.00;65.70;;;;;;5021442;28;20021;-59
2022/06/14 00:20:42;;;;;;;6.82;5.65;;;24.00;65.80;;;;;;5029726;28;20037;-59
2022/06/14 00:23:09;;;;;;;6.97;5.80;;;23.90;65.80;;;;;;5031514;28;20359;-59
2022/06/14 00:25:40;;;;;;;7.45;5.47;;;23.90;65.90;;;;;;5026263;28;20485;-59
2022/06/14 00:28:09;;;;;;;6.80;5.85;;;23.90;66.10;;;;;;5017391;28;20026;-59
2022/06/14 00:30:35;;;;;;;5.57;4.97;;;23.90;66.20;;;;;;5026027;28;20075;-59
2022/06/14 00:33:01;;;;;;;9.50;4.88;;;23.90;65.80;;;;;;5026792;28;20036;-59
2022/06/14 00:35:27;;;;;;;5.90;4.97;;;23.90;65.80;;;;;;5026854;28;20026;-58
2022/06/14 00:37:53;;;;;;;4.60;4.20;;;23.90;66.00;;;;;;5029599;28;20486;-59
2022/06/14 00:40:23;;;;;;;6.65;5.25;;;23.90;66.30;;;;;;5033268;28;20425;-59
2022/06/14 00:42:49;;;;;;;5.80;4.57;;;23.90;66.10;;;;;;5024068;28;20110;-59
2022/06/14 00:45:18;;;;;;;5.15;4.45;;;23.90;66.40;;;;;;5025512;28;20100;-59
2022/06/14 00:47:45;;;;;;;4.95;4.25;;;23.90;66.70;;;;;;5025351;28;20056;-59
2022/06/14 00:50:20;;;;;;;4.47;3.83;;;23.90;66.70;;;;;;5019646;28;20041;-59
2022/06/14 00:52:51;;;;;;;4.40;4.00;;;23.90;66.70;;;;;;5032356;28;20389;-59
2022/06/14 00:55:23;;;;;;;4.68;4.20;;;23.90;66.20;;;;;;5023287;28;20417;-58
2022/06/14 00:58:12;;;;;;;4.68;4.28;;;23.90;66.10;;;;;;5024025;28;20389;-59
2022/06/14 01:00:46;;;;;;;7.05;5.07;;;23.90;66.30;;;;;;5028880;28;20397;-59
2022/06/14 01:03:18;;;;;;;6.07;4.93;;;23.90;66.60;;;;;;5015996;28;20032;-59
2022/06/14 01:06:06;;;;;;;5.35;4.78;;;23.90;66.60;;;;;;5015268;28;20052;-59
2022/06/14 01:08:34;;;;;;;4.90;4.40;;;23.90;66.80;;;;;;5028660;28;20032;-59
2022/06/14 01:11:01;;;;;;;5.00;4.50;;;23.90;66.90;;;;;;5031504;28;20064;-59
2022/06/14 01:13:26;;;;;;;4.70;4.20;;;23.80;66.70;;;;;;5031094;28;20072;-59
2022/06/14 01:15:55;;;;;;;4.53;4.10;;;23.80;66.80;;;;;;5024157;28;20061;-59
2022/06/14 01:18:23;;;;;;;5.05;4.55;;;23.80;66.90;;;;;;5020366;28;20061;-59
2022/06/14 01:20:49;;;;;;;6.40;4.53;;;23.80;66.90;;;;;;5023611;28;20067;-59
2022/06/14 01:23:17;;;;;;;4.70;4.30;;;23.70;66.90;;;;;;5022734;28;20482;-59
2022/06/14 01:25:49;;;;;;;4.78;4.15;;;23.70;66.90;;;;;;5019086;28;20093;-59
2022/06/14 01:28:18;;;;;;;6.28;4.45;;;23.60;66.90;;;;;;5021304;28;20382;-59
2022/06/14 01:30:47;;;;;;;5.10;4.60;;;23.60;66.60;;;;;;5022465;28;20112;-59
2022/06/14 01:33:22;;;;;;;5.18;4.13;;;23.50;66.70;;;;;;5015858;28;20030;-59
2022/06/14 01:35:54;;;;;;;5.28;4.18;;;23.50;66.60;;;;;;5014245;28;20030;-59
2022/06/14 01:38:20;;;;;;;5.28;4.30;;;23.50;66.60;;;;;;5018714;28;20037;-59
2022/06/14 01:40:56;;;;;;;5.10;4.60;;;23.40;66.50;;;;;;5030166;28;20022;-59
2022/06/14 01:43:28;;;;;;;5.70;5.10;;;23.40;65.90;;;;;;5030634;28;20018;-59
2022/06/14 01:46:09;;;;;;;7.03;5.40;;;23.40;65.70;;;;;;5025317;28;20088;-59
2022/06/14 01:48:50;;;;;;;5.20;4.25;;;23.40;65.40;;;;;;5017033;28;20026;-58
2022/06/14 01:51:53;;;;;;;5.10;4.60;;;23.40;65.50;;;;;;5019042;28;20033;-59
2022/06/14 01:54:39;;;;;;;6.22;5.40;;;23.40;65.40;;;;;;5019162;28;20034;-59
2022/06/14 01:57:07;;;;;;;7.03;5.90;;;23.40;65.30;;;;;;5020867;28;20028;-59
2022/06/14 02:00:07;;;;;;;6.30;5.70;;;23.30;65.00;;;;;;5022891;28;20117;-59
2022/06/14 02:02:38;;;;;;;6.82;5.88;;;23.30;64.70;;;;;;5017283;28;20038;-59
2022/06/14 02:05:16;;;;;;;6.95;5.80;;;23.30;64.90;;;;;;5021391;28;20025;-59
2022/06/14 02:08:08;;;;;;;7.00;5.80;;;23.30;65.00;;;;;;5020132;28;20535;-59
2022/06/14 02:10:42;;;;;;;6.85;5.90;;;23.30;64.50;;;;;;5031437;28;20040;-59
2022/06/14 02:13:44;;;;;;;7.50;6.18;;;23.30;64.10;;;;;;5028914;28;20385;-59
2022/06/14 02:16:23;;;;;;;6.53;5.13;;;23.30;63.80;;;;;;5017286;28;20045;-59
2022/06/14 02:18:56;;;;;;;6.60;5.72;;;23.30;63.50;;;;;;5014761;28;20026;-59
2022/06/14 02:21:46;;;;;;;6.88;5.57;;;23.30;63.70;;;;;;5023664;28;20029;-59
2022/06/14 02:24:23;;;;;;;4.95;4.40;;;23.30;63.00;;;;;;5025824;28;20021;-58
2022/06/14 02:26:55;;;;;;;6.35;4.75;;;23.30;62.70;;;;;;5032878;28;20061;-59
2022/06/14 02:29:40;;;;;;;5.20;4.25;;;23.30;62.40;;;;;;5028769;28;20025;-59
2022/06/14 02:32:28;;;;;;;5.00;4.35;;;23.30;62.10;;;;;;5032919;28;20025;-59
2022/06/14 02:35:09;;;;;;;5.05;4.55;;;23.30;61.90;;;;;;5020488;28;20395;-59
2022/06/14 02:37:43;;;;;;;6.13;4.28;;;23.40;62.20;;;;;;5017914;28;20030;-59
2022/06/14 02:40:23;;;;;;;6.47;4.35;;;23.40;62.50;;;;;;5024762;28;20072;-59
2022/06/14 02:42:59;;;;;;;4.32;3.92;;;23.40;62.30;;;;;;5034388;28;20033;-59
2022/06/14 02:45:54;;;;;;;6.00;4.53;;;23.40;62.10;;;;;;5033550;28;20061;-59
2022/06/14 02:48:26;;;;;;;6.50;4.40;;;23.40;61.90;;;;;;5030926;28;20041;-59
2022/06/14 02:51:07;;;;;;;6.13;4.25;;;23.50;61.80;;;;;;5033703;28;20075;-59
2022/06/14 02:54:12;;;;;;;4.93;4.22;;;23.50;61.70;;;;;;5028718;28;20022;-58
2022/06/14 02:56:59;;;;;;;4.63;4.22;;;23.60;61.90;;;;;;5028392;28;20432;-59
2022/06/14 02:59:39;;;;;;;5.15;4.38;;;23.60;61.90;;;;;;5030736;28;20025;-59
2022/06/14 03:02:24;;;;;;;6.13;4.40;;;23.70;61.60;;;;;;5025882;28;20474;-59
2022/06/14 03:04:54;;;;;;;7.35;4.72;;;23.70;61.40;;;;;;5022722;28;20030;-57
2022/06/14 03:07:46;;;;;;;5.32;4.45;;;23.70;61.20;;;;;;5025645;28;20478;-59
2022/06/14 03:10:12;;;;;;;5.63;4.80;;;23.70;61.20;;;;;;5022586;28;20030;-59
2022/06/14 03:12:50;;;;;;;5.80;3.97;;;23.80;60.90;;;;;;5032504;28;20079;-59
2022/06/14 03:15:51;;;;;;;4.38;3.90;;;23.80;60.60;;;;;;5034072;28;20024;-59
2022/06/14 03:18:27;;;;;;;;;;;23.80;60.30;;;;;;5015659;28;20033;-59
2022/06/14 03:20:56;;;;;;;6.28;4.60;;;23.80;60.30;;;;;;5030894;28;19955;-59
2022/06/14 03:23:50;;;;;;;5.70;4.90;;;23.80;60.90;;;;;;5026810;28;21102;-59
2022/06/14 03:26:19;;;;;;;7.15;4.68;;;23.80;60.20;;;;;;5021319;28;20049;-58
2022/06/14 03:28:57;;;;;;;5.82;4.72;;;23.80;60.20;;;;;;5030376;28;20060;-57
2022/06/14 03:31:44;;;;;;;6.68;4.72;;;23.90;60.40;;;;;;5029226;28;20052;-57
2022/06/14 03:34:12;;;;;;;5.47;4.47;;;24.00;61.10;;;;;;5025699;28;20034;-57
2022/06/14 03:36:38;;;;;;;4.90;3.92;;;24.40;61.70;;;;;;5033921;28;20397;-58
2022/06/14 03:39:10;;;;;;;5.03;3.85;;;24.90;61.20;;;;;;5022517;28;20033;-58
2022/06/14 03:41:39;;;;;;;4.38;3.38;;;25.50;60.30;;;;;;5030929;28;20037;-58
2022/06/14 03:44:06;;;;;;;4.68;3.75;;;26.10;59.60;;;;;;5022309;28;20032;-58
2022/06/14 03:46:39;;;;;;;5.63;4.82;;;26.90;58.90;;;;;;5024534;28;20101;-58
2022/06/14 03:49:16;;;;;;;7.43;5.30;;;27.80;57.60;;;;;;5030943;28;20109;-58
2022/06/14 03:52:05;;;;;;;8.85;4.75;;;28.90;56.50;;;;;;5025567;28;20017;-58
2022/06/14 03:55:01;;;;;;;6.43;4.47;;;29.90;55.20;;;;;;5030202;28;20040;-58
2022/06/14 03:57:57;;;;;;;5.35;4.05;;;31.00;53.80;;;;;;5025803;28;20060;-56
2022/06/14 04:00:38;;;;;;;4.93;3.83;;;32.10;52.60;;;;;;5026282;28;20381;-58
2022/06/14 04:03:32;;;;;;;4.63;3.40;;;33.10;51.40;;;;;;5017760;28;20030;-58
2022/06/14 04:06:03;;;;;;;5.22;3.55;;;34.00;50.40;;;;;;5033938;28;20165;-58
2022/06/14 04:09:09;;;;;;;3.38;3.08;;;34.90;49.20;;;;;;5034224;28;20421;-58
2022/06/14 04:12:01;;;;;;;4.35;2.90;;;35.70;47.90;;;;;;5033962;28;20548;-58
2022/06/14 04:15:01;;;;;;;8.60;3.47;;;36.50;47.80;;;;;;5032882;28;20071;-58
2022/06/14 04:17:27;;;;;;;3.55;2.80;;;37.30;46.10;;;;;;5021404;28;20021;-58
2022/06/14 04:20:08;;;;;;;2.80;2.55;;;37.90;45.50;;;;;;5026047;28;20047;-58
2022/06/14 04:22:37;;;;;;;2.85;2.28;;;38.40;44.30;;;;;;5029119;28;20056;-58
2022/06/14 04:25:42;;;;;;;2.77;2.43;;;38.90;43.70;;;;;;5020744;28;20028;-58
2022/06/14 04:28:08;;;;;;;2.67;2.47;;;39.40;42.50;;;;;;5029060;28;20070;-58
2022/06/14 04:31:06;;;;;;;2.35;2.15;;;39.80;42.70;;;;;;5026032;28;20041;-58
2022/06/14 04:33:49;;;;;;;2.20;2.00;;;40.30;40.90;;;;;;5020605;28;20435;-58
2022/06/14 04:36:20;;;;;;;2.60;2.38;;;40.50;41.20;;;;;;5016555;28;20057;-57
2022/06/14 04:39:09;;;;;;;3.38;2.60;;;40.70;40.50;;;;;;5027619;28;20108;-58
2022/06/14 04:41:40;;;;;;;2.60;2.13;;;40.70;39.30;;;;;;5017866;28;20026;-57
2022/06/14 04:44:30;;;;;;;2.90;2.20;;;40.70;39.40;;;;;;5029724;28;20029;-58
2022/06/14 04:47:33;;;;;;;2.40;2.20;;;40.80;39.10;;;;;;5027701;28;20466;-58
2022/06/14 04:50:08;;;;;;;2.40;2.20;;;41.00;38.90;;;;;;5022732;28;20037;-58
2022/06/14 04:52:39;;;;;;;2.30;2.10;;;41.30;38.90;;;;;;5018348;28;20036;-58
2022/06/14 04:55:12;;;;;;;2.25;2.05;;;41.70;38.40;;;;;;5023014;28;20108;-58
2022/06/14 04:57:43;;;;;;;2.00;1.90;;;41.90;38.00;;;;;;5029309;28;20088;-58
2022/06/14 05:00:20;;;;;;;2.20;2.00;;;42.00;37.40;;;;;;5020234;28;20496;-57
2022/06/14 05:02:57;;;;;;;2.20;2.00;;;42.10;37.30;;;;;;5019196;28;20022;-57
2022/06/14 05:05:42;;;;;;;2.83;2.28;;;42.20;37.20;;;;;;5029526;28;20021;-58
2022/06/14 05:08:10;;;;;;;4.03;2.30;;;42.40;37.20;;;;;;5024436;28;20033;-57
2022/06/14 05:11:20;;;;;;;2.30;2.10;;;42.50;36.90;;;;;;5023095;28;20032;-58
2022/06/14 05:14:04;;;;;;;1.90;1.80;;;42.80;36.70;;;;;;5027322;28;20036;-58
2022/06/14 05:16:33;;;;;;;2.10;2.00;;;43.00;36.70;;;;;;5026584;28;20083;-58
2022/06/14 05:19:05;;;;;;;1.70;1.60;;;43.00;36.70;;;;;;5021826;28;20050;-58
2022/06/14 05:21:39;;;;;;;2.38;2.17;;;42.90;36.20;;;;;;5014158;28;20037;-58
2022/06/14 05:24:06;;;;;;;2.63;2.28;;;42.60;36.00;;;;;;5019564;28;20034;-58
2022/06/14 05:27:23;;;;;;;2.40;2.20;;;42.10;35.80;;;;;;5017327;28;20041;-58
2022/06/14 05:30:07;;;;;;;2.75;2.55;;;41.30;36.00;;;;;;5013143;28;20076;-58
2022/06/14 05:33:01;;;;;;;2.40;2.20;;;40.30;36.30;;;;;;5023411;28;20535;-58
2022/06/14 05:36:00;;;;;;;3.00;2.15;;;39.20;36.60;;;;;;5024351;28;20025;-58
2022/06/14 05:38:32;;;;;;;3.37;2.20;;;38.30;37.10;;;;;;5017288;28;20487;-58
2022/06/14 05:41:02;;;;;;;3.17;2.08;;;37.50;37.60;;;;;;5013863;28;20276;-57
2022/06/14 05:43:33;;;;;;;2.88;2.40;;;36.80;38.00;;;;;;5008214;28;20033;-58
2022/06/14 05:46:08;;;;;;;2.20;2.10;;;36.20;38.40;;;;;;5013691;28;20057;-58
2022/06/14 05:48:51;;;;;;;2.55;2.33;;;35.60;38.60;;;;;;5011949;28;20032;-58
2022/06/14 05:51:21;;;;;;;2.35;2.15;;;35.00;38.80;;;;;;5012130;28;20036;-58
2022/06/14 05:54:14;;;;;;;2.65;2.20;;;34.60;39.50;;;;;;5012691;28;20029;-58
2022/06/14 05:56:47;;;;;;;2.63;2.33;;;34.30;39.90;;;;;;5008352;28;20042;-58
2022/06/14 05:59:39;;;;;;;2.47;2.25;;;33.90;40.10;;;;;;5028719;28;20083;-57
2022/06/14 06:02:28;;;;;;;2.45;2.25;;;33.60;40.40;;;;;;5010289;28;20034;-58
2022/06/14 06:05:14;;;;;;;2.67;2.10;;;33.40;40.80;;;;;;5015124;28;20095;-58
2022/06/14 06:07:47;;;;;;;2.75;2.55;;;33.20;40.90;;;;;;5023602;28;20809;-58
2022/06/14 06:10:29;;;;;;;1.95;1.85;;;33.00;41.10;;;;;;5030621;28;20075;-58
2022/06/14 06:13:29;;;;;;;2.40;2.20;;;32.80;41.00;;;;;;5025221;28;20071;-57
2022/06/14 06:16:03;;;;;;;2.10;1.90;;;32.60;41.10;;;;;;5020099;28;20397;-58
2022/06/14 06:18:35;;;;;;;2.70;2.50;;;32.50;41.30;;;;;;5027313;28;20029;-57
2022/06/14 06:21:23;;;;;;;2.65;2.40;;;32.40;42.30;;;;;;5023627;28;20026;-58
2022/06/14 06:24:12;;;;;;;3.95;2.63;;;32.20;41.70;;;;;;5015954;28;20057;-58
2022/06/14 06:26:41;;;;;;;2.42;2.10;;;32.10;41.60;;;;;;5011305;28;20053;-58
2022/06/14 06:29:15;;;;;;;2.30;2.10;;;32.00;42.00;;;;;;5010465;28;20037;-58
2022/06/14 06:31:42;;;;;;;2.38;2.03;;;31.90;42.00;;;;;;5012497;28;20124;-58
2022/06/14 06:34:13;;;;;;;2.78;2.58;;;31.80;42.10;;;;;;5010712;28;20468;-58
2022/06/14 06:36:47;;;;;;;2.60;2.40;;;31.80;42.60;;;;;;5016022;28;20064;-58
2022/06/14 06:39:25;;;;;;;2.40;2.20;;;31.70;43.50;;;;;;5029110;28;20029;-58
2022/06/14 06:41:55;;;;;;;2.47;2.28;;;31.70;43.10;;;;;;5012322;28;20021;-58
2022/06/14 06:44:30;;;;;;;4.35;3.08;;;31.60;43.30;;;;;;5017241;28;20061;-57
2022/06/14 06:47:29;;;;;;;3.08;2.65;;;31.60;43.60;;;;;;5012413;28;20405;-57
2022/06/14 06:50:05;;;;;;;2.65;2.28;;;31.50;43.60;;;;;;5020645;28;20503;-58
2022/06/14 06:53:01;;;;;;;3.50;2.60;;;31.50;44.10;;;;;;5013512;28;20090;-58
2022/06/14 06:55:47;;;;;;;3.42;2.80;;;31.50;44.30;;;;;;5009667;28;20719;-57
2022/06/14 06:58:24;;;;;;;2.60;2.40;;;31.40;44.30;;;;;;5004136;28;20072;-57
2022/06/14 07:00:54;;;;;;;3.45;2.50;;;31.40;44.50;;;;;;5013640;28;20124;-57
2022/06/14 07:03:47;;;;;;;2.90;2.60;;;31.40;45.20;;;;;;4999396;28;20115;-57
2022/06/14 07:06:24;;;;;;;3.50;2.50;;;31.40;44.70;;;;;;5006921;28;20033;-58
2022/06/14 07:09:00;;;;;;;2.42;2.22;;;31.30;44.50;;;;;;5011295;28;22406;-58
2022/06/14 07:11:34;;;;;;;2.85;2.45;;;31.30;44.60;;;;;;5010035;28;20083;-57
2022/06/14 07:14:24;;;;;;;2.65;2.45;;;31.30;44.80;;;;;;5015478;28;20037;-57
2022/06/14 07:17:10;;;;;;;3.15;2.85;;;31.30;44.60;;;;;;5006460;28;20068;-57
2022/06/14 07:19:53;;;;;;;2.80;2.55;;;31.40;44.60;;;;;;5010818;28;20037;-57
2022/06/14 07:22:28;;;;;;;3.90;2.65;;;31.40;44.60;;;;;;5003114;28;20032;-57
2022/06/14 07:25:28;;;;;;;2.80;2.28;;;31.40;44.60;;;;;;5000789;28;20075;-58
2022/06/14 07:28:19;;;;;;;3.40;2.67;;;31.30;44.50;;;;;;5010706;28;20037;-57
2022/06/14 07:30:56;;;;;;;3.15;2.60;;;31.10;44.30;;;;;;5003095;28;20456;-57
2022/06/14 07:33:25;;;;;;;3.53;2.78;;;30.80;44.40;;;;;;5002333;28;20058;-58
2022/06/14 07:36:00;;;;;;;4.05;2.80;;;30.60;44.50;;;;;;5007930;28;20041;-57
2022/06/14 07:38:43;;;;;;;2.85;2.65;;;30.40;44.70;;;;;;5004672;28;20029;-57
2022/06/14 07:41:40;;;;;;;2.47;2.28;;;30.20;45.20;;;;;;5005930;28;20080;-58
2022/06/14 07:44:21;;;;;;;2.63;2.42;;;30.00;45.40;;;;;;5006685;28;20037;-57
2022/06/14 07:47:25;;;;;;;3.03;2.72;;;29.90;45.60;;;;;;4995010;28;20528;-57
2022/06/14 07:50:22;;;;;;;3.35;2.58;;;29.90;46.00;;;;;;5003689;28;20041;-57
2022/06/14 07:53:00;;;;;;;2.72;2.53;;;29.80;46.30;;;;;;4994028;28;20030;-57
2022/06/14 07:55:34;;;;;;;2.65;2.40;;;29.80;47.00;;;;;;4999087;28;20034;-57
2022/06/14 07:58:08;;;;;;;3.50;2.70;;;29.80;46.90;;;;;;5007377;28;20443;-58
2022/06/14 08:03:32;;;;;;;3.72;3.20;;;29.90;48.10;;;;;;4994615;28;20603;-57
2022/06/14 08:06:01;;;;;;;3.67;3.28;;;29.80;48.80;;;;;;4995662;28;23051;-56
2022/06/14 08:08:31;;;;;;;4.43;3.80;;;29.70;49.40;;;;;;5000076;28;20057;-57
2022/06/14 08:11:02;;;;;;;3.70;3.40;;;29.50;50.30;;;;;;4994285;28;20032;-56
2022/06/14 08:13:34;;;;;;;3.97;3.58;;;29.30;50.80;;;;;;4999908;28;20030;-57
2022/06/14 08:16:03;;;;;;;5.07;3.88;;;29.10;51.50;;;;;;5003019;28;20512;-57
2022/06/14 08:18:44;;;;;;;4.47;4.05;;;28.90;51.90;;;;;;5001482;28;20033;-57
2022/06/14 08:21:30;;;;;;;4.75;4.25;;;28.80;52.50;;;;;;4992616;28;20042;-57
2022/06/14 08:24:06;;;;;;;4.75;4.25;;;28.60;52.50;;;;;;4992688;28;20021;-57
2022/06/14 08:26:47;;;;;;;6.05;4.35;;;28.40;52.90;;;;;;5002625;28;20119;-57
2022/06/14 08:29:25;;;;;;;5.25;4.75;;;28.20;53.40;;;;;;5003383;28;20029;-57
2022/06/14 08:32:14;;;;;;;7.93;5.40;;;28.00;53.80;;;;;;4997460;28;20036;-56
2022/06/14 08:34:47;;;;;;;5.80;5.20;;;27.80;54.10;;;;;;5001956;28;20025;-55
2022/06/14 08:37:22;;;;;;;6.03;5.28;;;27.60;54.20;;;;;;4998371;28;20331;-57
2022/06/14 08:40:08;;;;;;;6.07;5.47;;;27.50;54.60;;;;;;4999731;28;21025;-56
2022/06/14 08:42:40;;;;;;;5.57;4.88;;;27.20;55.20;;;;;;4998045;28;20049;-56
2022/06/14 08:45:12;;;;;;;6.55;5.60;;;27.00;55.10;;;;;;5002927;28;20018;-57
2022/06/14 08:47:52;;;;;;;6.30;5.50;;;26.90;55.50;;;;;;5003050;28;20440;-57
2022/06/14 08:50:24;;;;;;;6.73;6.07;;;26.70;56.10;;;;;;5003582;28;20646;-57
2022/06/14 08:53:26;;;;;;;7.00;6.00;;;26.60;56.10;;;;;;4996654;28;20033;-56
2022/06/14 08:56:00;;;;;;;8.23;5.43;;;26.50;57.00;;;;;;5000939;28;20029;-57
2022/06/14 08:58:32;;;;;;;7.35;5.57;;;26.40;56.80;;;;;;4998266;28;20758;-57
2022/06/14 09:01:13;;;;;;;6.10;5.30;;;26.30;57.20;;;;;;4981776;28;21237;-57
2022/06/14 09:04:01;;;;;;;8.05;5.45;;;26.30;57.40;;;;;;4995094;28;20029;-56
2022/06/14 09:06:30;;;;;;;5.97;5.30;;;26.20;57.60;;;;;;4994830;28;20057;-55
2022/06/14 09:09:25;;;;;;;8.38;5.20;;;26.10;57.50;;;;;;5001546;28;20041;-56
2022/06/14 09:12:23;;;;;;;5.72;5.13;;;26.00;58.00;;;;;;4997069;28;20029;-57
2022/06/14 09:15:01;;;;;;;5.80;5.13;;;26.00;58.40;;;;;;4998306;28;20064;-57
2022/06/14 09:17:37;;;;;;;6.45;4.88;;;25.90;58.50;;;;;;5001565;28;20159;-57
2022/06/14 09:20:10;;;;;;;5.20;4.70;;;25.80;58.40;;;;;;5003331;28;20820;-57
2022/06/14 09:23:10;;;;;;;7.22;4.72;;;25.80;58.60;;;;;;5001148;28;20040;-56
2022/06/14 09:25:59;;;;;;;5.03;4.53;;;25.70;59.00;;;;;;5003702;28;20125;-57
2022/06/14 09:28:58;;;;;;;5.55;4.78;;;25.60;58.60;;;;;;5005409;28;21399;-56
2022/06/14 09:31:27;;;;;;;5.10;4.60;;;25.60;59.00;;;;;;5003893;28;20129;-57
2022/06/14 09:34:11;;;;;;;6.07;4.28;;;25.60;58.70;;;;;;5004413;28;20033;-56
2022/06/14 09:37:10;;;;;;;5.38;4.10;;;25.60;58.80;;;;;;5007643;28;20148;-57
2022/06/14 09:40:10;;;;;;;4.68;4.10;;;25.50;59.10;;;;;;5006042;28;20497;-57
2022/06/14 09:42:57;;;;;;;4.65;4.22;;;25.50;59.60;;;;;;5014233;28;20033;-57
2022/06/14 09:45:41;;;;;;;5.57;4.20;;;25.40;59.80;;;;;;5003656;28;20030;-57
2022/06/14 09:48:12;;;;;;;4.40;3.78;;;25.40;59.80;;;;;;5008157;28;20083;-56
2022/06/14 09:50:53;;;;;;;4.30;3.90;;;25.40;59.70;;;;;;5005458;28;20032;-57
2022/06/14 09:53:37;;;;;;;3.88;3.35;;;25.40;60.30;;;;;;5009613;28;20028;-57
2022/06/14 09:56:18;;;;;;;4.03;3.53;;;25.30;60.30;;;;;;5001413;28;20033;-58
2022/06/14 09:59:25;;;;;;;3.45;3.15;;;25.30;59.90;;;;;;5003333;28;20025;-57
2022/06/14 10:02:06;;;;;;;3.15;2.92;;;25.20;60.00;;;;;;5015783;28;20567;-57
2022/06/14 10:04:58;;;;;;;4.13;2.95;;;25.10;60.00;;;;;;4998372;28;20029;-56
2022/06/14 10:07:56;;;;;;;2.90;2.70;;;25.10;60.10;;;;;;5005677;28;20030;-57
2022/06/14 10:10:31;;;;;;;4.88;3.17;;;25.00;60.20;;;;;;5009727;28;20107;-56
2022/06/14 10:12:59;;;;;;;3.00;2.70;;;25.00;60.40;;;;;;5011930;28;20092;-57
2022/06/14 10:15:53;;;;;;;3.35;3.05;;;24.90;60.40;;;;;;5010358;28;20098;-57
2022/06/14 10:18:22;;;;;;;4.70;2.80;;;24.90;60.80;;;;;;5008224;28;20033;-58
2022/06/14 10:21:07;;;;;;;3.05;2.78;;;24.80;60.60;;;;;;5012103;28;20064;-57
2022/06/14 10:24:06;;;;;;;3.33;3.03;;;24.80;60.60;;;;;;5014986;28;20030;-57
2022/06/14 10:29:58;;;;;;;3.30;3.00;;;24.60;61.30;;;;;;5018765;28;20032;-58
2022/06/14 10:33:08;;;;;;;3.20;2.90;;;24.50;60.90;;;;;;5008459;28;20049;-58
2022/06/14 10:35:55;;;;;;;4.30;3.00;;;24.40;61.50;;;;;;5011333;28;20516;-57
2022/06/14 10:38:56;;;;;;;5.47;2.50;;;24.20;61.50;;;;;;5003937;28;20053;-57
2022/06/14 10:41:29;;;;;;;3.08;2.70;;;24.10;61.90;;;;;;5006619;28;20057;-57
2022/06/14 10:44:04;;;;;;;4.15;2.78;;;24.00;62.00;;;;;;5003229;28;20068;-57
2022/06/14 10:46:39;;;;;;;2.70;2.50;;;23.90;62.50;;;;;;4996822;28;20096;-57
2022/06/14 10:49:21;;;;;;;4.20;2.65;;;23.90;63.10;;;;;;5011820;28;20035;-57
2022/06/14 10:52:05;;;;;;;2.78;2.58;;;23.80;63.60;;;;;;5016874;28;20037;-57
2022/06/14 10:55:16;;;;;;;3.30;3.00;;;23.80;64.20;;;;;;5013234;28;20094;-57
2022/06/14 10:57:59;;;;;;;2.53;2.00;;;23.70;64.20;;;;;;5005429;28;20113;-56
2022/06/14 11:00:44;;;;;;;2.20;2.00;;;23.70;63.80;;;;;;5015877;28;20745;-56
2022/06/14 11:03:35;;;;;;;2.30;2.10;;;23.70;63.10;;;;;;4999606;28;20445;-56
2022/06/14 11:06:01;;;;;;;2.03;1.90;;;23.70;62.90;;;;;;4999854;28;20056;-57
2022/06/14 11:08:58;;;;;;;2.05;1.95;;;23.70;62.80;;;;;;4997755;28;20037;-57
2022/06/14 11:11:42;;;;;;;2.30;1.73;;;23.70;62.90;;;;;;5002867;28;20073;-57
2022/06/14 11:14:34;;;;;;;1.95;1.85;;;23.70;62.90;;;;;;5004638;28;20483;-57
2022/06/14 11:17:29;;;;;;;1.85;1.75;;;23.60;62.20;;;;;;5001252;28;20030;-58
2022/06/14 11:20:12;;;;;;;1.90;1.80;;;23.50;62.10;;;;;;5002200;28;20041;-57
2022/06/14 11:22:48;;;;;;;1.85;1.75;;;23.50;62.10;;;;;;5008489;28;20075;-57
2022/06/14 11:25:34;;;;;;;2.25;2.15;;;23.40;62.20;;;;;;5013803;28;20065;-57
2022/06/14 11:28:19;;;;;;;2.30;1.98;;;23.40;61.80;;;;;;5014782;28;21403;-56
2022/06/14 11:31:09;;;;;;;2.38;1.42;;;23.30;62.00;;;;;;5012575;28;20151;-57
2022/06/14 11:33:59;;;;;;;1.83;1.73;;;23.30;61.80;;;;;;5009745;28;20101;-57
2022/06/14 11:37:06;;;;;;;2.10;2.00;;;23.30;61.60;;;;;;5008549;28;20037;-56
2022/06/14 11:40:13;;;;;;;2.10;1.95;;;23.20;61.60;;;;;;5007128;28;20033;-57
2022/06/14 11:43:02;;;;;;;2.00;1.90;;;23.10;61.80;;;;;;5006573;28;20069;-56
2022/06/14 11:45:43;;;;;;;1.95;1.85;;;23.10;62.30;;;;;;4994923;28;20025;-56
2022/06/14 11:48:38;;;;;;;;;;;23.00;62.50;;;;;;5003436;28;20603;-57
2022/06/14 11:51:13;;;;;;;2.22;2.10;;;23.00;62.70;;;;;;5039291;28;20357;-57
2022/06/14 11:53:47;;;;;;;1.88;1.77;;;23.10;62.20;;;;;;5010152;28;20101;-57
2022/06/14 11:56:40;;;;;;;1.98;1.88;;;23.10;61.60;;;;;;5001183;28;20029;-57
2022/06/14 11:59:30;;;;;;;1.80;1.70;;;23.20;61.10;;;;;;5004380;28;20034;-57
2022/06/14 12:02:07;;;;;;;2.10;1.90;;;23.20;60.90;;;;;;5012375;28;20029;-57
2022/06/14 12:04:53;;;;;;;2.15;1.95;;;23.30;60.80;;;;;;5013052;28;20541;-57
2022/06/14 12:07:40;;;;;;;1.85;1.73;;;23.30;60.60;;;;;;5003948;28;20087;-57
2022/06/14 12:10:42;;;;;;;2.20;2.10;;;23.40;60.70;;;;;;4999313;28;20088;-57
2022/06/14 12:13:15;;;;;;;2.33;2.15;;;23.40;60.50;;;;;;5006846;28;20575;-58
2022/06/14 12:16:17;;;;;;;1.88;1.75;;;23.50;60.20;;;;;;5010177;28;20025;-57
2022/06/14 12:18:56;;;;;;;1.73;1.65;;;23.50;59.70;;;;;;5012640;28;20042;-57
2022/06/14 12:21:35;;;;;;;2.10;2.00;;;23.60;59.80;;;;;;5009429;28;20543;-57
2022/06/14 12:24:07;;;;;;;1.80;1.70;;;23.70;59.60;;;;;;5014094;28;20029;-57
2022/06/14 12:26:46;;;;;;;2.30;2.10;;;23.80;59.40;;;;;;5011063;28;20494;-57
2022/06/14 12:29:24;;;;;;;1.88;1.80;;;23.80;59.30;;;;;;5010121;28;20496;-56
2022/06/14 12:32:04;;;;;;;2.08;1.90;;;23.90;59.10;;;;;;5003067;28;20052;-57
2022/06/14 12:34:45;;;;;;;1.98;1.88;;;24.00;58.80;;;;;;4999708;28;20034;-57
2022/06/14 12:37:32;;;;;;;2.20;2.00;;;24.00;59.00;;;;;;4989454;28;20148;-57
2022/06/14 12:40:10;;;;;;;1.85;1.75;;;24.00;58.70;;;;;;4980568;28;20110;-57
2022/06/14 12:43:03;;;;;;;1.60;1.55;;;24.10;58.70;;;;;;4991119;28;20032;-56
2022/06/14 12:45:31;;;;;;;2.25;2.05;;;24.20;58.50;;;;;;4992171;28;24219;-57
2022/06/14 12:48:06;;;;;;;2.10;2.00;;;24.20;58.40;;;;;;4985879;28;22145;-56
2022/06/14 12:50:37;;;;;;;1.77;1.67;;;24.20;58.80;;;;;;4991803;28;20544;-57
2022/06/14 12:53:06;;;;;;;;;;;24.20;58.40;;;;;;4994828;28;20078;-56
2022/06/14 12:55:49;;;;;;;2.03;1.83;;;24.20;58.40;;;;;;4996162;28;19924;-55
2022/06/14 12:58:50;;;;;;;2.45;2.10;;;24.20;58.60;;;;;;5000762;28;20029;-56
2022/06/14 13:01:24;;;;;;;1.60;1.50;;;24.20;58.60;;;;;;4997827;28;20567;-57
2022/06/14 13:04:13;;;;;;;1.83;1.73;;;24.20;58.60;;;;;;4999656;28;23209;-57
2022/06/14 13:07:20;;;;;;;1.88;1.77;;;24.20;58.50;;;;;;4999300;28;20112;-58
2022/06/14 13:10:11;;;;;;;1.90;1.80;;;24.20;57.60;;;;;;5000966;28;20136;-58
2022/06/14 13:13:02;;;;;;;2.78;1.80;;;24.20;57.60;;;;;;5009103;28;20029;-58
2022/06/14 13:15:45;;;;;;;;;;;24.20;57.50;;;;;;4997458;28;20068;-57
2022/06/14 13:18:20;;;;;;;2.50;1.52;;;24.20;57.60;;;;;;4997780;28;20526;-57
2022/06/14 13:21:13;;;;;;;1.85;1.75;;;24.10;57.50;;;;;;5002300;28;20021;-58
2022/06/14 13:23:46;;;;;;;1.70;1.60;;;24.10;57.60;;;;;;5004303;28;20071;-58
2022/06/14 13:26:18;;;;;;;2.20;1.98;;;24.00;57.40;;;;;;5001220;28;20079;-58
2022/06/14 13:28:59;;;;;;;1.75;1.45;;;24.00;57.30;;;;;;5007555;28;20113;-58
2022/06/14 13:31:45;;;;;;;1.50;1.40;;;24.00;57.50;;;;;;5006034;28;20029;-58
2022/06/14 13:34:37;;;;;;;1.50;1.40;;;23.90;57.00;;;;;;5002706;28;20164;-57
2022/06/14 13:37:25;;;;;;;2.05;1.70;;;23.90;57.00;;;;;;4993914;28;20037;-58
2022/06/14 13:40:07;;;;;;;1.23;1.23;;;23.90;57.20;;;;;;5003978;28;20037;-58
2022/06/14 13:42:56;;;;;;;1.42;1.35;;;23.90;57.00;;;;;;5001907;28;20806;-59
2022/06/14 13:45:42;;;;;;;1.70;1.60;;;23.80;57.20;;;;;;5010010;28;20048;-58
2022/06/14 13:48:18;;;;;;;1.05;1.05;;;23.90;57.20;;;;;;5003009;28;20125;-58
2022/06/14 13:50:49;;;;;;;1.52;1.40;;;23.80;57.00;;;;;;4990221;28;20025;-58
2022/06/14 13:53:25;;;;;;;1.50;1.40;;;23.80;57.20;;;;;;4999896;28;20034;-58
2022/06/14 13:56:04;;;;;;;1.50;1.40;;;23.80;57.30;;;;;;4992096;28;20033;-56
2022/06/14 13:58:36;;;;;;;1.73;1.63;;;23.80;57.20;;;;;;5004262;28;20036;-57
2022/06/14 14:01:06;;;;;;;1.42;1.33;;;23.70;57.00;;;;;;5005355;28;20032;-58
2022/06/14 14:03:47;;;;;;;1.80;1.70;;;23.70;57.20;;;;;;5011065;28;20034;-57